Time;durP1;ratioP1;P1;durP2;ratioP2;P2;SDS_P1;SDS_P2;PMS_P1;PMS_P2;Temp;Humidity;BMP_temperature;BMP_pressure;BME280_temperature;BME280_humidity;BME280_pressure;Samples;Min_cycle;Max_cycle;Signal;HPM_P1;HPM_P2
2024/04/04 00:01:48;;;;;;;15.18;2.97;;;;;;;;;;5049795;28;25061;-64
2024/04/04 00:04:15;;;;;;;19.80;3.63;;;;;;;;;;5047683;28;25087;-65
2024/04/04 00:06:41;;;;;;;11.10;2.63;;;;;;;;;;5043714;28;25055;-64
2024/04/04 00:09:07;;;;;;;14.95;2.90;;;;;;;;;;5048106;28;25052;-64
2024/04/04 00:11:33;;;;;;;11.15;2.88;;;;;;;;;;5041306;28;25142;-64
2024/04/04 00:13:59;;;;;;;13.32;2.50;;;;;;;;;;5034606;28;25066;-65
2024/04/04 00:16:25;;;;;;;15.27;3.90;;;;;;;;;;5043675;28;25094;-64
2024/04/04 00:18:51;;;;;;;17.65;3.05;;;;;;;;;;5042283;28;25070;-65
2024/04/04 00:21:17;;;;;;;9.10;2.78;;;;;;;;;;5046305;28;25096;-65
2024/04/04 00:23:43;;;;;;;10.60;2.50;;;;;;;;;;5042910;28;25045;-65
2024/04/04 00:26:10;;;;;;;13.23;2.63;;;;;;;;;;5049596;28;25074;-65
2024/04/04 00:28:36;;;;;;;15.40;3.33;;;;;;;;;;5050845;28;25109;-64
2024/04/04 00:31:02;;;;;;;12.52;2.80;;;;;;;;;;5041510;28;25090;-65
2024/04/04 00:33:28;;;;;;;9.88;2.45;;;;;;;;;;5044183;28;25065;-64
2024/04/04 00:35:54;;;;;;;14.55;2.90;;;;;;;;;;5057426;28;25077;-64
2024/04/04 00:38:20;;;;;;;10.77;2.45;;;;;;;;;;5060826;28;25106;-65
2024/04/04 00:40:46;;;;;;;14.27;2.78;;;;;;;;;;5051118;28;25085;-65
2024/04/04 00:43:12;;;;;;;14.80;2.78;;;;;;;;;;5056340;28;25064;-65
2024/04/04 00:45:38;;;;;;;13.63;2.70;;;;;;;;;;5047144;28;25106;-64
2024/04/04 00:48:04;;;;;;;16.90;3.30;;;;;;;;;;5049973;28;25077;-64
2024/04/04 00:50:31;;;;;;;16.65;3.55;;;;;;;;;;5042768;28;25067;-65
2024/04/04 00:52:57;;;;;;;15.75;2.60;;;;;;;;;;5049425;28;25109;-64
2024/04/04 00:55:23;;;;;;;20.40;3.20;;;;;;;;;;5047877;28;25088;-65
2024/04/04 00:57:52;;;;;;;15.77;2.88;;;;;;;;;;5049943;28;25077;-64
2024/04/04 01:00:18;;;;;;;14.63;2.47;;;;;;;;;;5046466;28;25065;-64
2024/04/04 01:02:44;;;;;;;16.13;3.05;;;;;;;;;;5045488;28;25071;-65
2024/04/04 01:05:15;;;;;;;13.07;2.70;;;;;;;;;;5049378;28;25066;-63
2024/04/04 01:07:41;;;;;;;16.67;3.03;;;;;;;;;;5042230;28;25080;-64
2024/04/04 01:10:08;;;;;;;13.15;2.95;;;;;;;;;;5047633;28;25078;-64
2024/04/04 01:12:34;;;;;;;14.30;3.53;;;;;;;;;;5047167;28;25073;-63
2024/04/04 01:15:01;;;;;;;18.55;4.18;;;;;;;;;;5049631;28;25063;-65
2024/04/04 01:17:27;;;;;;;9.95;2.50;;;;;;;;;;5054437;28;25115;-63
2024/04/04 01:19:53;;;;;;;12.18;2.83;;;;;;;;;;5049046;28;25259;-63
2024/04/04 01:22:19;;;;;;;9.43;2.60;;;;;;;;;;5044863;28;25065;-63
2024/04/04 01:24:45;;;;;;;15.75;3.20;;;;;;;;;;5047335;28;25052;-65
2024/04/04 01:27:11;;;;;;;10.00;2.38;;;;;;;;;;5046903;28;25085;-65
2024/04/04 01:29:37;;;;;;;16.42;3.33;;;;;;;;;;5049767;28;25078;-65
2024/04/04 01:32:03;;;;;;;10.00;3.08;;;;;;;;;;5054403;28;25075;-66
2024/04/04 01:34:29;;;;;;;18.02;3.88;;;;;;;;;;5054736;28;25096;-67
2024/04/04 01:36:55;;;;;;;16.90;4.03;;;;;;;;;;5046288;28;25050;-66
2024/04/04 01:39:21;;;;;;;15.75;3.00;;;;;;;;;;5047642;28;25134;-66
2024/04/04 01:41:47;;;;;;;10.80;3.47;;;;;;;;;;5049256;28;25099;-66
2024/04/04 01:44:13;;;;;;;15.48;3.63;;;;;;;;;;5047480;28;25127;-65
2024/04/04 01:46:43;;;;;;;14.65;3.25;;;;;;;;;;5047376;28;25092;-64
2024/04/04 01:49:09;;;;;;;10.82;3.13;;;;;;;;;;5039620;28;25068;-64
2024/04/04 01:51:35;;;;;;;17.17;3.47;;;;;;;;;;5043812;28;25067;-64
2024/04/04 01:54:02;;;;;;;13.52;3.83;;;;;;;;;;5049286;28;25087;-64
2024/04/04 01:56:28;;;;;;;14.85;3.55;;;;;;;;;;5044335;28;25059;-65
2024/04/04 01:58:54;;;;;;;17.30;4.45;;;;;;;;;;5039483;28;25063;-65
2024/04/04 02:01:20;;;;;;;16.52;3.65;;;;;;;;;;5042991;28;25077;-64
2024/04/04 02:03:46;;;;;;;14.50;3.17;;;;;;;;;;5045425;28;25075;-64
2024/04/04 02:06:12;;;;;;;17.70;3.58;;;;;;;;;;5042432;28;25085;-62
2024/04/04 02:08:38;;;;;;;14.65;3.33;;;;;;;;;;5047073;28;25059;-64
2024/04/04 02:11:04;;;;;;;16.13;3.90;;;;;;;;;;5040567;28;25080;-65
2024/04/04 02:13:30;;;;;;;16.77;4.00;;;;;;;;;;5042768;28;25080;-67
2024/04/04 02:15:57;;;;;;;19.58;4.13;;;;;;;;;;5044953;28;25053;-66
2024/04/04 02:18:23;;;;;;;18.95;4.07;;;;;;;;;;5043365;28;25062;-66
2024/04/04 02:20:49;;;;;;;15.93;4.15;;;;;;;;;;5038833;28;25175;-64
2024/04/04 02:23:15;;;;;;;21.70;4.13;;;;;;;;;;5050946;28;25139;-67
2024/04/04 02:25:42;;;;;;;13.55;3.63;;;;;;;;;;5044159;28;25061;-67
2024/04/04 02:28:12;;;;;;;15.43;3.47;;;;;;;;;;5045460;28;25072;-67
2024/04/04 02:30:38;;;;;;;16.05;3.90;;;;;;;;;;5051728;28;25061;-69
2024/04/04 02:33:04;;;;;;;15.30;3.60;;;;;;;;;;5050300;28;25130;-67
2024/04/04 02:35:30;;;;;;;11.27;3.22;;;;;;;;;;5055131;28;25098;-65
2024/04/04 02:37:57;;;;;;;13.00;3.60;;;;;;;;;;5050713;28;25075;-68
2024/04/04 02:40:23;;;;;;;18.15;4.22;;;;;;;;;;5050522;28;25108;-66
2024/04/04 02:42:49;;;;;;;22.95;4.82;;;;;;;;;;5048723;28;25090;-66
2024/04/04 02:45:16;;;;;;;13.05;3.28;;;;;;;;;;5051139;28;25082;-65
2024/04/04 02:47:42;;;;;;;18.88;3.90;;;;;;;;;;5043450;28;25110;-67
2024/04/04 02:50:08;;;;;;;11.95;3.50;;;;;;;;;;5051776;28;25083;-65
2024/04/04 02:52:34;;;;;;;12.45;4.15;;;;;;;;;;5049193;28;25080;-65
2024/04/04 02:55:00;;;;;;;10.43;3.50;;;;;;;;;;5063705;28;25139;-66
2024/04/04 02:57:26;;;;;;;12.95;4.55;;;;;;;;;;5047071;28;25053;-66
2024/04/04 02:59:52;;;;;;;10.25;4.15;;;;;;;;;;5047620;28;25037;-65
2024/04/04 03:02:18;;;;;;;15.93;4.00;;;;;;;;;;5045360;28;25083;-66
2024/04/04 03:04:44;;;;;;;14.75;4.30;;;;;;;;;;5047445;28;25107;-64
2024/04/04 03:07:10;;;;;;;15.95;4.72;;;;;;;;;;5055195;28;25077;-66
2024/04/04 03:09:36;;;;;;;12.85;4.78;;;;;;;;;;5048975;28;25162;-64
2024/04/04 03:12:02;;;;;;;16.08;4.88;;;;;;;;;;5047753;28;25155;-63
2024/04/04 03:14:29;;;;;;;9.98;4.63;;;;;;;;;;5056774;28;25053;-65
2024/04/04 03:16:55;;;;;;;13.65;4.93;;;;;;;;;;5043493;28;25071;-65
2024/04/04 03:19:21;;;;;;;12.57;5.35;;;;;;;;;;5041912;28;25127;-65
2024/04/04 03:21:48;;;;;;;12.45;5.60;;;;;;;;;;5046754;28;25076;-67
2024/04/04 03:24:14;;;;;;;13.10;5.85;;;;;;;;;;5050397;28;25068;-65
2024/04/04 03:26:40;;;;;;;9.77;5.38;;;;;;;;;;5052374;28;25117;-68
2024/04/04 03:29:06;;;;;;;8.40;4.85;;;;;;;;;;5049244;28;25112;-66
2024/04/04 03:31:32;;;;;;;9.75;5.40;;;;;;;;;;5051271;28;25069;-66
2024/04/04 03:33:58;;;;;;;18.08;6.85;;;;;;;;;;5052721;28;25062;-68
2024/04/04 03:36:24;;;;;;;16.15;7.40;;;;;;;;;;5055532;28;25097;-66
2024/04/04 03:38:50;;;;;;;12.80;7.57;;;;;;;;;;5049224;28;25149;-66
2024/04/04 03:41:17;;;;;;;14.95;7.47;;;;;;;;;;5048709;28;25076;-66
2024/04/04 03:43:43;;;;;;;16.77;8.25;;;;;;;;;;5049384;28;25066;-67
2024/04/04 03:46:10;;;;;;;15.60;8.38;;;;;;;;;;5057600;28;25076;-66
2024/04/04 03:48:36;;;;;;;14.45;7.15;;;;;;;;;;5046997;28;25082;-67
2024/04/04 03:51:02;;;;;;;12.82;9.70;;;;;;;;;;5053837;28;25084;-67
2024/04/04 03:53:28;;;;;;;18.73;10.43;;;;;;;;;;5048323;28;25073;-67
2024/04/04 03:55:54;;;;;;;19.33;12.82;;;;;;;;;;5052266;28;25059;-66
2024/04/04 03:58:20;;;;;;;23.38;14.98;;;;;;;;;;5049418;28;25094;-67
2024/04/04 04:00:48;;;;;;;24.63;14.45;;;;;;;;;;5054017;28;25072;-68
2024/04/04 04:03:14;;;;;;;23.80;16.75;;;;;;;;;;5048132;28;25093;-66
2024/04/04 04:05:40;;;;;;;21.85;14.48;;;;;;;;;;5049521;28;25068;-67
2024/04/04 04:08:06;;;;;;;21.63;15.15;;;;;;;;;;5055922;28;25125;-65
2024/04/04 04:10:32;;;;;;;18.55;14.52;;;;;;;;;;5052869;28;25126;-69
2024/04/04 04:12:58;;;;;;;13.88;10.05;;;;;;;;;;5049788;28;25125;-67
2024/04/04 04:15:26;;;;;;;19.27;13.90;;;;;;;;;;5054625;28;25084;-67
2024/04/04 04:17:51;;;;;;;17.25;12.98;;;;;;;;;;5045596;28;25088;-67
2024/04/04 04:23:22;;;;;;;24.33;14.95;;;;;;;;;;5008644;28;25059;-68
2024/04/04 04:25:48;;;;;;;18.02;14.52;;;;;;;;;;5009326;28;25143;-67
2024/04/04 04:28:14;;;;;;;22.25;15.10;;;;;;;;;;5029412;28;25074;-69
2024/04/04 04:30:40;;;;;;;25.38;16.38;;;;;;;;;;5054606;28;25121;-69
2024/04/04 04:33:07;;;;;;;21.13;14.70;;;;;;;;;;5061338;28;25142;-68
2024/04/04 04:35:33;;;;;;;24.45;14.45;;;;;;;;;;5060414;28;25062;-68
2024/04/04 04:37:59;;;;;;;17.75;11.13;;;;;;;;;;5056813;28;25082;-68
2024/04/04 04:40:24;;;;;;;16.85;10.20;;;;;;;;;;5062430;28;25139;-68
2024/04/04 04:42:50;;;;;;;12.57;8.70;;;;;;;;;;5055807;28;25090;-68
2024/04/04 04:45:17;;;;;;;10.98;6.68;;;;;;;;;;5047162;28;25070;-69
2024/04/04 04:47:43;;;;;;;11.05;4.85;;;;;;;;;;5051348;28;25054;-67
2024/04/04 04:50:09;;;;;;;3.85;3.45;;;;;;;;;;5041868;28;25059;-65
2024/04/04 04:52:36;;;;;;;6.13;3.22;;;;;;;;;;5050852;28;25056;-67
2024/04/04 04:55:02;;;;;;;5.32;3.47;;;;;;;;;;5048077;28;25072;-68
2024/04/04 04:57:28;;;;;;;7.57;3.90;;;;;;;;;;5050862;28;25070;-68
2024/04/04 04:59:54;;;;;;;5.80;3.75;;;;;;;;;;5049703;28;25069;-68
2024/04/04 05:02:21;;;;;;;8.68;3.95;;;;;;;;;;5042319;28;25080;-67
2024/04/04 05:04:47;;;;;;;9.30;4.65;;;;;;;;;;5055848;28;25075;-66
2024/04/04 05:07:13;;;;;;;9.00;5.03;;;;;;;;;;5057959;28;25055;-66
2024/04/04 05:09:39;;;;;;;6.63;5.47;;;;;;;;;;5051268;28;25074;-67
2024/04/04 05:12:05;;;;;;;16.67;7.00;;;;;;;;;;5050829;28;25074;-66
2024/04/04 05:14:31;;;;;;;15.90;7.88;;;;;;;;;;5055322;28;25043;-67
2024/04/04 05:16:58;;;;;;;15.73;8.25;;;;;;;;;;5054909;28;25074;-68
2024/04/04 05:19:24;;;;;;;11.20;8.25;;;;;;;;;;5050114;28;25071;-68
2024/04/04 05:21:50;;;;;;;20.50;9.88;;;;;;;;;;5055139;28;25072;-70
2024/04/04 05:24:16;;;;;;;17.55;6.70;;;;;;;;;;5067057;28;25054;-67
2024/04/04 05:26:42;;;;;;;11.10;5.78;;;;;;;;;;5057386;28;25061;-66
2024/04/04 05:29:12;;;;;;;10.20;5.32;;;;;;;;;;5063195;28;25079;-67
2024/04/04 05:31:38;;;;;;;11.43;4.97;;;;;;;;;;5051259;28;25065;-67
2024/04/04 05:34:04;;;;;;;10.05;4.30;;;;;;;;;;5053102;28;25054;-65
2024/04/04 05:36:30;;;;;;;13.85;4.90;;;;;;;;;;5059321;28;25069;-67
2024/04/04 05:38:56;;;;;;;11.75;5.30;;;;;;;;;;5051004;28;25062;-65
2024/04/04 05:41:22;;;;;;;8.85;4.70;;;;;;;;;;5051735;28;25067;-67
2024/04/04 05:43:48;;;;;;;10.40;5.43;;;;;;;;;;5042568;28;25067;-68
2024/04/04 05:46:14;;;;;;;12.57;6.50;;;;;;;;;;5056377;28;25055;-67
2024/04/04 05:48:40;;;;;;;20.08;7.45;;;;;;;;;;5054933;28;25130;-68
2024/04/04 05:51:06;;;;;;;14.65;7.22;;;;;;;;;;5051205;28;25074;-67
2024/04/04 05:53:32;;;;;;;12.52;6.53;;;;;;;;;;5061965;28;25059;-68
2024/04/04 05:55:58;;;;;;;12.25;6.97;;;;;;;;;;5059730;28;25081;-68
2024/04/04 05:58:24;;;;;;;13.30;6.65;;;;;;;;;;5060368;28;25103;-68
2024/04/04 06:00:51;;;;;;;21.55;10.00;;;;;;;;;;5053846;28;25051;-68
2024/04/04 06:03:17;;;;;;;18.80;7.35;;;;;;;;;;5062713;28;25050;-67
2024/04/04 06:05:43;;;;;;;18.35;7.95;;;;;;;;;;5061058;28;25058;-67
2024/04/04 06:08:10;;;;;;;19.85;6.00;;;;;;;;;;5056242;28;25147;-66
2024/04/04 06:10:36;;;;;;;13.82;5.22;;;;;;;;;;5058544;28;25055;-66
2024/04/04 06:13:03;;;;;;;17.70;5.82;;;;;;;;;;5060810;28;25139;-63
2024/04/04 06:15:29;;;;;;;16.95;6.15;;;;;;;;;;5057726;28;25154;-68
2024/04/04 06:17:55;;;;;;;15.18;6.20;;;;;;;;;;5060881;28;25096;-68
2024/04/04 06:20:23;;;;;;;15.93;5.30;;;;;;;;;;5057881;28;25079;-67
2024/04/04 06:22:49;;;;;;;15.98;5.82;;;;;;;;;;5051057;28;25077;-67
2024/04/04 06:25:15;;;;;;;19.55;5.80;;;;;;;;;;5049012;28;25052;-68
2024/04/04 06:27:41;;;;;;;19.38;6.85;;;;;;;;;;5047450;28;25075;-68
2024/04/04 06:30:07;;;;;;;16.65;6.32;;;;;;;;;;5045157;28;25079;-68
2024/04/04 06:32:33;;;;;;;20.42;6.80;;;;;;;;;;5039125;28;25053;-67
2024/04/04 06:34:59;;;;;;;20.75;6.53;;;;;;;;;;5040747;28;25083;-66
2024/04/04 06:37:25;;;;;;;16.20;6.05;;;;;;;;;;5045974;28;25076;-67
2024/04/04 06:39:51;;;;;;;19.65;6.40;;;;;;;;;;5051924;28;25078;-67
2024/04/04 06:42:17;;;;;;;13.63;4.85;;;;;;;;;;5049084;28;25075;-67
2024/04/04 06:44:43;;;;;;;14.07;4.85;;;;;;;;;;5042651;28;25077;-67
2024/04/04 06:47:10;;;;;;;21.00;5.20;;;;;;;;;;5054696;28;25063;-67
2024/04/04 06:49:36;;;;;;;18.13;5.05;;;;;;;;;;5059261;28;25042;-63
2024/04/04 06:52:02;;;;;;;13.23;5.28;;;;;;;;;;5055534;28;25087;-65
2024/04/04 06:54:28;;;;;;;10.55;4.75;;;;;;;;;;5047182;28;25157;-65
2024/04/04 06:56:54;;;;;;;10.75;4.32;;;;;;;;;;5053588;28;25054;-67
2024/04/04 06:59:20;;;;;;;14.95;4.90;;;;;;;;;;5055551;28;25089;-67
2024/04/04 07:01:46;;;;;;;9.98;4.10;;;;;;;;;;5047982;28;25114;-66
2024/04/04 07:04:12;;;;;;;14.48;4.57;;;;;;;;;;5053679;28;25083;-66
2024/04/04 07:06:39;;;;;;;15.10;4.43;;;;;;;;;;5051125;28;25139;-67
2024/04/04 07:09:06;;;;;;;8.18;4.10;;;;;;;;;;5047464;28;25125;-69
2024/04/04 07:11:32;;;;;;;14.88;4.95;;;;;;;;;;5043591;28;25169;-65
2024/04/04 07:13:58;;;;;;;18.20;4.75;;;;;;;;;;5048350;28;25123;-64
2024/04/04 07:16:25;;;;;;;10.05;4.05;;;;;;;;;;5046636;28;25052;-64
2024/04/04 07:18:51;;;;;;;13.63;4.15;;;;;;;;;;5053287;28;25058;-67
2024/04/04 07:21:17;;;;;;;9.57;4.18;;;;;;;;;;5047664;28;25127;-66
2024/04/04 07:23:43;;;;;;;19.27;4.85;;;;;;;;;;5048238;28;25072;-64
2024/04/04 07:26:09;;;;;;;13.63;4.88;;;;;;;;;;5047907;28;25064;-65
2024/04/04 07:28:35;;;;;;;11.75;4.03;;;;;;;;;;5051599;28;25069;-66
2024/04/04 07:31:01;;;;;;;9.57;3.40;;;;;;;;;;5049699;28;25135;-67
2024/04/04 07:33:27;;;;;;;14.98;3.85;;;;;;;;;;5042171;28;25149;-67
2024/04/04 07:35:53;;;;;;;14.27;4.53;;;;;;;;;;5043187;28;25067;-64
2024/04/04 07:38:19;;;;;;;16.40;4.40;;;;;;;;;;5042816;28;25063;-66
2024/04/04 07:40:46;;;;;;;13.40;3.60;;;;;;;;;;5048904;28;25111;-67
2024/04/04 07:43:12;;;;;;;12.48;5.28;;;;;;;;;;5038878;28;25080;-65
2024/04/04 07:45:39;;;;;;;10.65;3.42;;;;;;;;;;5040278;28;25162;-67
2024/04/04 07:48:08;;;;;;;8.38;3.30;;;;;;;;;;5032837;28;25115;-71
2024/04/04 07:50:34;;;;;;;11.38;3.75;;;;;;;;;;5040102;28;25056;-66
2024/04/04 07:53:00;;;;;;;12.93;3.70;;;;;;;;;;5045803;28;25072;-66
2024/04/04 07:55:26;;;;;;;9.88;3.88;;;;;;;;;;5037610;28;25072;-64
2024/04/04 07:57:53;;;;;;;17.15;4.38;;;;;;;;;;5041883;28;25083;-65
2024/04/04 08:00:19;;;;;;;13.63;4.25;;;;;;;;;;5047133;28;25053;-64
2024/04/04 08:02:45;;;;;;;13.38;4.00;;;;;;;;;;5044319;28;25058;-64
2024/04/04 08:05:12;;;;;;;9.18;3.97;;;;;;;;;;5051532;28;25082;-67
2024/04/04 08:07:38;;;;;;;9.02;4.43;;;;;;;;;;5048071;28;25084;-66
2024/04/04 08:10:05;;;;;;;10.52;4.78;;;;;;;;;;5058994;28;25172;-66
2024/04/04 08:12:31;;;;;;;12.25;4.20;;;;;;;;;;5044167;28;25052;-67
2024/04/04 08:14:58;;;;;;;6.68;3.50;;;;;;;;;;5042402;28;25071;-67
2024/04/04 08:17:23;;;;;;;8.48;3.22;;;;;;;;;;5052055;28;25068;-66
2024/04/04 08:19:50;;;;;;;7.13;2.50;;;;;;;;;;5056047;28;25108;-67
2024/04/04 08:22:15;;;;;;;4.53;2.67;;;;;;;;;;5059160;22;25064;-62
2024/04/04 08:24:41;;;;;;;11.57;3.22;;;;;;;;;;5002213;28;25063;-61
2024/04/04 08:27:07;;;;;;;16.50;4.05;;;;;;;;;;5001552;28;25080;-62
2024/04/04 08:29:33;;;;;;;11.45;3.92;;;;;;;;;;5006811;28;25074;-61
2024/04/04 08:31:59;;;;;;;10.20;3.97;;;;;;;;;;4978002;28;25070;-62
2024/04/04 08:34:25;;;;;;;14.77;4.63;;;;;;;;;;4956663;28;25119;-64
2024/04/04 08:36:51;;;;;;;9.10;4.03;;;;;;;;;;4968867;28;25093;-62
2024/04/04 08:39:17;;;;;;;8.50;4.20;;;;;;;;;;4983696;28;25053;-60
2024/04/04 08:41:44;;;;;;;14.82;6.00;;;;;;;;;;4987856;28;25092;-63
2024/04/04 08:44:12;;;;;;;10.48;4.55;;;;;;;;;;4988302;28;25119;-63
2024/04/04 08:46:38;;;;;;;10.68;4.70;;;;;;;;;;4989192;28;25074;-63
2024/04/04 08:49:04;;;;;;;14.55;5.65;;;;;;;;;;4990648;28;25099;-63
2024/04/04 08:51:30;;;;;;;18.73;5.22;;;;;;;;;;4987613;28;25093;-65
2024/04/04 08:53:56;;;;;;;11.38;3.47;;;;;;;;;;4992231;28;25102;-63
2024/04/04 08:56:23;;;;;;;9.68;3.20;;;;;;;;;;4991352;28;25067;-63
2024/04/04 08:58:49;;;;;;;8.88;2.92;;;;;;;;;;4994888;28;25083;-63
2024/04/04 09:01:15;;;;;;;9.80;3.45;;;;;;;;;;4993930;28;25061;-65
2024/04/04 09:03:44;;;;;;;7.03;2.20;;;;;;;;;;4987407;28;25062;-65
2024/04/04 09:06:10;;;;;;;7.70;3.10;;;;;;;;;;4989054;28;25048;-67
2024/04/04 09:08:39;;;;;;;13.20;3.17;;;;;;;;;;4988852;28;25057;-62
2024/04/04 09:11:05;;;;;;;8.63;3.13;;;;;;;;;;4984325;28;25082;-63
2024/04/04 09:13:31;;;;;;;6.28;2.72;;;;;;;;;;4982650;28;25122;-62
2024/04/04 09:16:01;;;;;;;12.18;3.15;;;;;;;;;;4988947;28;25096;-63
2024/04/04 09:18:28;;;;;;;11.32;3.38;;;;;;;;;;4987599;28;25071;-63
2024/04/04 09:20:54;;;;;;;7.68;2.85;;;;;;;;;;4991268;28;25058;-62
2024/04/04 09:23:20;;;;;;;11.93;3.47;;;;;;;;;;4989950;28;25053;-63
2024/04/04 09:25:46;;;;;;;13.07;2.95;;;;;;;;;;5008156;28;25076;-65
2024/04/04 09:28:14;;;;;;;10.00;2.60;;;;;;;;;;4990652;28;25059;-64
2024/04/04 09:30:41;;;;;;;7.38;2.15;;;;;;;;;;5008851;28;25060;-61
2024/04/04 09:33:08;;;;;;;7.22;2.78;;;;;;;;;;5008839;28;25048;-65
2024/04/04 09:35:35;;;;;;;6.88;2.40;;;;;;;;;;5009811;28;25067;-63
2024/04/04 09:38:01;;;;;;;9.48;2.42;;;;;;;;;;5016032;28;25071;-63
2024/04/04 09:40:27;;;;;;;8.63;2.58;;;;;;;;;;4993101;28;25062;-64
2024/04/04 09:42:53;;;;;;;15.98;3.53;;;;;;;;;;5018581;28;25071;-62
2024/04/04 09:45:20;;;;;;;7.45;2.25;;;;;;;;;;5007769;28;25092;-63
2024/04/04 09:47:47;;;;;;;6.93;2.03;;;;;;;;;;5014182;28;25117;-63
2024/04/04 09:50:17;;;;;;;10.18;2.08;;;;;;;;;;5011890;28;25076;-61
2024/04/04 09:52:43;;;;;;;9.18;2.13;;;;;;;;;;5003455;28;25054;-62
2024/04/04 09:55:12;;;;;;;7.60;2.35;;;;;;;;;;5002464;28;25066;-63
2024/04/04 09:57:41;;;;;;;7.13;1.70;;;;;;;;;;5002966;28;25063;-62
2024/04/04 10:00:17;;;;;;;4.43;2.05;;;;;;;;;;5008157;28;25062;-62
2024/04/04 10:02:47;;;;;;;7.18;2.25;;;;;;;;;;5006888;28;25052;-63
2024/04/04 10:05:20;;;;;;;7.05;1.83;;;;;;;;;;5009239;28;25153;-61
2024/04/04 10:07:50;;;;;;;6.05;1.58;;;;;;;;;;5005859;28;25071;-63
2024/04/04 10:10:20;;;;;;;10.07;2.38;;;;;;;;;;4990179;28;25061;-62
2024/04/04 10:12:50;;;;;;;7.75;2.08;;;;;;;;;;4992057;28;25077;-61
2024/04/04 10:15:16;;;;;;;8.68;1.65;;;;;;;;;;5000982;28;25079;-63
2024/04/04 10:17:55;;;;;;;9.20;2.22;;;;;;;;;;5008873;28;25054;-64
2024/04/04 10:20:22;;;;;;;7.20;2.60;;;;;;;;;;5011006;28;25082;-63
2024/04/04 10:23:05;;;;;;;11.93;3.47;;;;;;;;;;5006942;28;25086;-68
2024/04/04 10:25:31;;;;;;;4.38;2.38;;;;;;;;;;4998562;28;25050;-64
2024/04/04 10:28:04;;;;;;;8.23;2.65;;;;;;;;;;5017147;28;25071;-63
2024/04/04 10:30:36;;;;;;;8.88;2.55;;;;;;;;;;5013584;28;25124;-62
2024/04/04 10:33:07;;;;;;;8.82;2.78;;;;;;;;;;5005255;28;25071;-62
2024/04/04 10:35:34;;;;;;;10.65;2.53;;;;;;;;;;5008923;28;25048;-62
2024/04/04 10:38:07;;;;;;;10.23;3.15;;;;;;;;;;5008383;28;25074;-62
2024/04/04 10:40:33;;;;;;;8.02;2.83;;;;;;;;;;5003915;28;25075;-62
2024/04/04 10:42:59;;;;;;;9.30;4.20;;;;;;;;;;5005077;28;25065;-62
2024/04/04 10:45:25;;;;;;;12.52;3.63;;;;;;;;;;5004875;28;25075;-61
2024/04/04 10:47:58;;;;;;;8.38;3.13;;;;;;;;;;5006665;28;25031;-61
2024/04/04 10:50:25;;;;;;;14.70;3.75;;;;;;;;;;5006170;28;25103;-61
2024/04/04 10:52:51;;;;;;;12.82;3.30;;;;;;;;;;5012968;28;25157;-64
2024/04/04 10:55:18;;;;;;;14.27;3.63;;;;;;;;;;5012166;28;25131;-60
2024/04/04 10:57:45;;;;;;;13.05;4.00;;;;;;;;;;5006067;28;25056;-63
2024/04/04 11:00:13;;;;;;;14.55;4.53;;;;;;;;;;5003741;28;25069;-62
2024/04/04 11:02:43;;;;;;;15.68;3.80;;;;;;;;;;5006883;28;25317;-62
2024/04/04 11:05:10;;;;;;;17.48;4.05;;;;;;;;;;5010413;28;25137;-62
2024/04/04 11:07:38;;;;;;;10.55;3.90;;;;;;;;;;5010865;28;25095;-61
2024/04/04 11:10:06;;;;;;;18.10;4.43;;;;;;;;;;5012171;28;25064;-60
2024/04/04 11:12:32;;;;;;;17.67;4.78;;;;;;;;;;5009367;28;25073;-61
2024/04/04 11:15:01;;;;;;;15.52;4.50;;;;;;;;;;5016153;28;25146;-61
2024/04/04 11:17:27;;;;;;;17.25;4.93;;;;;;;;;;5010352;28;25102;-60
2024/04/04 11:20:01;;;;;;;25.83;5.75;;;;;;;;;;5007155;28;25103;-59
2024/04/04 11:22:27;;;;;;;17.70;5.10;;;;;;;;;;5000788;28;25077;-60
2024/04/04 11:24:53;;;;;;;20.52;5.45;;;;;;;;;;4988208;28;25096;-60
2024/04/04 11:27:19;;;;;;;19.33;5.20;;;;;;;;;;4989358;28;25061;-60
2024/04/04 11:29:45;;;;;;;21.27;6.80;;;;;;;;;;4995666;28;25050;-63
2024/04/04 11:32:11;;;;;;;27.63;6.57;;;;;;;;;;4985083;28;25109;-60
2024/04/04 11:34:37;;;;;;;29.75;8.07;;;;;;;;;;4996739;28;25087;-61
2024/04/04 11:37:03;;;;;;;36.85;8.30;;;;;;;;;;4989848;28;25056;-61
2024/04/04 11:39:29;;;;;;;33.38;7.40;;;;;;;;;;4972176;28;25076;-62
2024/04/04 11:41:55;;;;;;;24.55;7.00;;;;;;;;;;4992798;28;25087;-62
2024/04/04 11:44:21;;;;;;;34.78;7.30;;;;;;;;;;4988559;28;25078;-60
2024/04/04 11:46:47;;;;;;;29.63;7.88;;;;;;;;;;4997092;28;25069;-62
2024/04/04 11:49:16;;;;;;;31.27;7.00;;;;;;;;;;4991482;28;25042;-62
2024/04/04 11:51:42;;;;;;;41.13;9.85;;;;;;;;;;4992100;28;25050;-62
2024/04/04 11:54:08;;;;;;;33.15;7.70;;;;;;;;;;4982568;28;25081;-60
2024/04/04 11:56:34;;;;;;;35.72;7.50;;;;;;;;;;4985928;28;25053;-63
2024/04/04 11:59:01;;;;;;;32.45;7.90;;;;;;;;;;4972022;28;25075;-62
2024/04/04 12:01:27;;;;;;;40.20;8.25;;;;;;;;;;4968889;28;25087;-62
2024/04/04 12:03:53;;;;;;;33.45;8.40;;;;;;;;;;4965150;28;25048;-61
2024/04/04 12:06:19;;;;;;;37.05;8.95;;;;;;;;;;4967741;28;25074;-62
2024/04/04 12:08:47;;;;;;;40.38;8.50;;;;;;;;;;4974406;28;25138;-61
2024/04/04 12:11:13;;;;;;;32.70;8.25;;;;;;;;;;4965836;28;25167;-63
2024/04/04 12:13:39;;;;;;;39.60;9.13;;;;;;;;;;4970429;28;25152;-65
2024/04/04 12:16:08;;;;;;;34.70;7.75;;;;;;;;;;4966088;28;25086;-61
2024/04/04 12:21:19;;;;;;;38.03;8.13;;;;;;;;;;4967521;28;25156;-61
2024/04/04 12:23:48;;;;;;;36.88;7.43;;;;;;;;;;4987004;28;25080;-62
2024/04/04 12:26:14;;;;;;;38.38;8.30;;;;;;;;;;4995233;28;25135;-62
2024/04/04 12:28:41;;;;;;;42.28;8.20;;;;;;;;;;4987300;28;25083;-62
2024/04/04 12:31:07;;;;;;;37.88;8.15;;;;;;;;;;4985127;28;25112;-60
2024/04/04 12:33:33;;;;;;;41.20;11.63;;;;;;;;;;4984631;28;25055;-61
2024/04/04 12:35:59;;;;;;;39.38;8.20;;;;;;;;;;4969950;28;25050;-62
2024/04/04 12:38:25;;;;;;;36.72;8.43;;;;;;;;;;4991321;28;25134;-64
2024/04/04 12:40:51;;;;;;;35.08;8.10;;;;;;;;;;4984547;28;25161;-61
2024/04/04 12:43:17;;;;;;;36.22;7.78;;;;;;;;;;4986342;28;25056;-62
2024/04/04 12:45:43;;;;;;;39.33;8.65;;;;;;;;;;4991347;28;25135;-60
2024/04/04 12:48:09;;;;;;;32.03;7.63;;;;;;;;;;4986828;28;25100;-61
2024/04/04 12:50:35;;;;;;;45.03;7.50;;;;;;;;;;4983247;28;25091;-63
2024/04/04 12:53:01;;;;;;;35.53;7.35;;;;;;;;;;4977415;28;25058;-61
2024/04/04 12:55:27;;;;;;;27.65;6.65;;;;;;;;;;4985380;28;25144;-62
2024/04/04 12:57:53;;;;;;;26.60;5.57;;;;;;;;;;4987021;28;25054;-62
2024/04/04 13:00:19;;;;;;;26.60;5.45;;;;;;;;;;4982105;28;25078;-60
2024/04/04 13:02:46;;;;;;;25.92;6.07;;;;;;;;;;4982370;28;25068;-61
2024/04/04 13:05:12;;;;;;;26.08;5.28;;;;;;;;;;4974692;28;25124;-62
2024/04/04 13:07:38;;;;;;;27.85;6.63;;;;;;;;;;4981498;28;25078;-61
2024/04/04 13:10:07;;;;;;;29.40;6.95;;;;;;;;;;4986825;28;25068;-63
2024/04/04 13:12:33;;;;;;;27.75;6.43;;;;;;;;;;4982735;28;25063;-63
2024/04/04 13:14:59;;;;;;;29.23;7.78;;;;;;;;;;4986617;28;25051;-61
2024/04/04 13:17:25;;;;;;;28.95;6.93;;;;;;;;;;4985723;28;25142;-62
2024/04/04 13:19:51;;;;;;;27.63;6.38;;;;;;;;;;4988383;28;25162;-62
2024/04/04 13:22:17;;;;;;;35.80;7.55;;;;;;;;;;4991163;28;25119;-62
2024/04/04 13:24:46;;;;;;;31.75;7.88;;;;;;;;;;4990826;28;25132;-62
2024/04/04 13:27:12;;;;;;;39.40;8.32;;;;;;;;;;4988572;28;25093;-62
2024/04/04 13:29:38;;;;;;;33.90;8.05;;;;;;;;;;4985103;28;25140;-61
2024/04/04 13:32:04;;;;;;;35.65;7.70;;;;;;;;;;4974315;28;25067;-62
2024/04/04 13:34:30;;;;;;;36.60;8.40;;;;;;;;;;4989750;28;25117;-61
2024/04/04 13:36:56;;;;;;;36.55;8.07;;;;;;;;;;4987383;28;25067;-62
2024/04/04 13:39:22;;;;;;;36.55;8.20;;;;;;;;;;4987191;28;25096;-61
2024/04/04 13:41:48;;;;;;;41.05;7.93;;;;;;;;;;4989077;28;25085;-62
2024/04/04 13:44:18;;;;;;;35.67;7.63;;;;;;;;;;4984441;28;25097;-61
2024/04/04 13:46:44;;;;;;;38.75;8.35;;;;;;;;;;4991871;28;25076;-62
2024/04/04 13:49:11;;;;;;;43.10;8.38;;;;;;;;;;4982197;28;25079;-62
2024/04/04 13:51:37;;;;;;;37.75;8.02;;;;;;;;;;4981569;28;25139;-63
2024/04/04 13:54:07;;;;;;;50.83;9.00;;;;;;;;;;4984550;28;25074;-63
2024/04/04 13:56:33;;;;;;;42.83;8.98;;;;;;;;;;4978747;28;25058;-60
2024/04/04 13:58:58;;;;;;;54.53;12.60;;;;;;;;;;4986200;28;25078;-60
2024/04/04 14:01:25;;;;;;;43.67;8.93;;;;;;;;;;4988213;28;25085;-63
2024/04/04 14:03:51;;;;;;;52.42;9.73;;;;;;;;;;4979982;28;25115;-61
2024/04/04 14:06:16;;;;;;;39.88;9.07;;;;;;;;;;4987192;28;25063;-62
2024/04/04 14:08:42;;;;;;;43.38;9.60;;;;;;;;;;4982361;28;25054;-61
2024/04/04 14:11:08;;;;;;;52.47;9.25;;;;;;;;;;4983378;28;25064;-63
2024/04/04 14:13:34;;;;;;;49.65;9.48;;;;;;;;;;4986235;28;25102;-62
2024/04/04 14:16:02;;;;;;;50.13;10.80;;;;;;;;;;4985723;28;25147;-61
2024/04/04 14:18:28;;;;;;;43.17;9.68;;;;;;;;;;4984185;28;25057;-62
2024/04/04 14:20:53;;;;;;;60.17;10.48;;;;;;;;;;4983344;28;25135;-61
2024/04/04 14:23:19;;;;;;;57.83;11.38;;;;;;;;;;5006062;22;25090;-67
2024/04/04 14:25:45;;;;;;;52.10;11.15;;;;;;;;;;5010437;28;25084;-66
2024/04/04 14:28:11;;;;;;;50.47;9.38;;;;;;;;;;5031807;28;25079;-66
2024/04/04 14:30:37;;;;;;;51.45;10.73;;;;;;;;;;5036404;28;25112;-65
2024/04/04 14:33:03;;;;;;;47.95;9.80;;;;;;;;;;5029034;28;25060;-62